createdAt,value
2023-01-28T00:02:09.475Z,1.97
2023-01-28T00:04:37.691Z,4.10
2023-01-28T00:07:05.907Z,8.07
2023-01-28T00:09:34.128Z,8.70
2023-01-28T00:12:02.541Z,7.30
2023-01-28T00:14:30.833Z,8.17
2023-01-28T00:17:00.511Z,6.23
2023-01-28T00:19:28.771Z,8.03
2023-01-28T00:21:57.081Z,8.33
2023-01-28T00:24:25.353Z,5.67
2023-01-28T00:26:54.635Z,5.87
2023-01-28T00:29:22.817Z,7.03
2023-01-28T00:31:51.116Z,8.10
2023-01-28T00:34:21.271Z,8.33
2023-01-28T00:36:57.342Z,8.70
2023-01-28T00:39:26.248Z,7.33
2023-01-28T00:41:55.789Z,6.63
2023-01-28T00:44:24.033Z,5.37
2023-01-28T00:46:52.341Z,7.63
2023-01-28T00:49:22.242Z,9.33
2023-01-28T00:51:50.547Z,8.57
2023-01-28T00:54:18.885Z,6.00
2023-01-28T00:56:47.130Z,8.97
2023-01-28T00:59:15.350Z,8.80
2023-01-28T01:01:43.661Z,9.40
2023-01-28T01:04:11.952Z,8.30
2023-01-28T01:06:42.205Z,8.43
2023-01-28T01:09:12.996Z,7.50
2023-01-28T01:11:41.251Z,8.37
2023-01-28T01:14:09.510Z,8.73
2023-01-28T01:16:38.844Z,9.53
2023-01-28T01:19:09.513Z,8.80
2023-01-28T01:21:37.770Z,8.80
2023-01-28T01:24:07.767Z,9.07
2023-01-28T01:26:36.018Z,7.00
2023-01-28T01:29:04.300Z,7.50
2023-01-28T01:31:32.579Z,8.40
2023-01-28T01:34:00.842Z,7.33
2023-01-28T01:36:29.088Z,7.07
2023-01-28T01:38:57.842Z,5.87
2023-01-28T01:41:29.529Z,7.60
2023-01-28T01:43:59.205Z,7.80
2023-01-28T01:46:31.667Z,9.30
2023-01-28T01:49:02.277Z,6.87
2023-01-28T01:51:33.198Z,8.17
2023-01-28T01:54:02.142Z,7.50
2023-01-28T01:56:34.721Z,5.83
2023-01-28T01:59:03.290Z,7.90
2023-01-28T02:01:32.827Z,8.27
2023-01-28T02:04:05.061Z,7.93
2023-01-28T02:06:34.024Z,7.60
2023-01-28T02:09:03.461Z,7.37
2023-01-28T02:11:35.437Z,8.57
2023-01-28T02:14:05.252Z,7.93
2023-01-28T02:16:33.998Z,9.00
2023-01-28T02:19:02.310Z,3.93
2023-01-28T02:21:45.741Z,7.50
2023-01-28T02:24:28.967Z,6.80
2023-01-28T02:27:14.142Z,7.60
2023-01-28T02:29:46.002Z,4.70
2023-01-28T02:32:16.881Z,8.23
2023-01-28T02:34:47.388Z,8.37
2023-01-28T02:37:17.390Z,6.67
2023-01-28T02:39:49.805Z,8.00
2023-01-28T02:42:20.095Z,5.40
2023-01-28T02:44:49.778Z,5.73
2023-01-28T02:47:35.867Z,7.87
2023-01-28T02:50:04.813Z,8.50
2023-01-28T02:52:56.034Z,9.37
2023-01-28T02:55:28.435Z,6.90
2023-01-28T02:58:01.479Z,5.80
2023-01-28T03:00:37.788Z,8.50
2023-01-28T03:03:10.183Z,5.90
2023-01-28T03:05:41.393Z,4.80
2023-01-28T03:08:24.385Z,7.27
2023-01-28T03:11:11.140Z,6.93
2023-01-28T03:13:58.266Z,7.50
2023-01-28T03:16:45.522Z,6.33
2023-01-28T03:19:32.836Z,5.50
2023-01-28T03:22:18.585Z,7.40
2023-01-28T03:25:07.045Z,6.93
2023-01-28T03:27:56.789Z,5.40
2023-01-28T03:30:46.972Z,8.60
2023-01-28T03:33:35.489Z,7.70
2023-01-28T03:36:21.401Z,7.40
2023-01-28T03:38:49.774Z,9.07
2023-01-28T03:41:22.345Z,8.20
2023-01-28T03:43:51.074Z,9.20
2023-01-28T03:46:19.480Z,7.60
2023-01-28T03:48:49.195Z,6.60
2023-01-28T03:51:17.927Z,9.27
2023-01-28T03:53:46.234Z,8.30
2023-01-28T03:56:19.485Z,7.40
2023-01-28T03:58:53.794Z,9.30
2023-01-28T04:01:22.665Z,7.40
2023-01-28T04:03:52.255Z,9.13
2023-01-28T04:06:22.974Z,8.20
2023-01-28T04:08:53.099Z,8.63
2023-01-28T04:11:21.863Z,8.50
2023-01-28T04:13:50.784Z,7.30
2023-01-28T04:16:19.568Z,9.50
2023-01-28T04:18:47.856Z,9.10
2023-01-28T04:21:17.497Z,10.63
2023-01-28T04:23:45.786Z,10.63
2023-01-28T04:26:13.989Z,9.03
2023-01-28T04:28:42.307Z,9.97
2023-01-28T04:31:10.712Z,9.10
2023-01-28T04:33:38.990Z,8.00
2023-01-28T04:36:07.361Z,11.33
2023-01-28T04:38:36.926Z,12.57
2023-01-28T04:41:05.221Z,8.73
2023-01-28T04:43:33.499Z,13.27
2023-01-28T04:46:01.722Z,9.70
2023-01-28T04:48:31.396Z,10.57
2023-01-28T04:50:59.919Z,11.20
2023-01-28T04:53:28.201Z,13.17
2023-01-28T04:55:57.816Z,10.13
2023-01-28T04:58:26.154Z,10.57
2023-01-28T05:00:56.973Z,1.80
2023-01-28T05:03:25.252Z,10.07
2023-01-28T05:05:53.554Z,6.10
2023-01-28T05:08:21.884Z,9.60
2023-01-28T05:10:50.078Z,9.10
2023-01-28T05:13:19.604Z,7.40
2023-01-28T05:15:52.941Z,15.87
2023-01-28T05:18:21.205Z,4.17
2023-01-28T05:20:49.476Z,5.20
2023-01-28T05:23:17.746Z,11.90
2023-01-28T05:25:46.670Z,6.00
2023-01-28T05:28:14.936Z,11.10
2023-01-28T05:30:44.554Z,5.03
2023-01-28T05:33:12.750Z,5.63
2023-01-28T05:35:40.992Z,13.40
2023-01-28T05:38:09.202Z,16.60
2023-01-28T05:40:37.500Z,14.07
2023-01-28T05:43:05.740Z,10.90
2023-01-28T05:45:33.992Z,11.77
2023-01-28T05:48:03.599Z,15.23
2023-01-28T05:50:31.907Z,12.57
2023-01-28T05:53:00.189Z,4.20
2023-01-28T05:55:28.472Z,21.80
2023-01-28T05:57:56.694Z,13.90
2023-01-28T06:00:25.121Z,16.70
2023-01-28T06:02:53.737Z,15.67
2023-01-28T06:05:23.370Z,17.60
2023-01-28T06:07:52.312Z,12.07
2023-01-28T06:10:20.753Z,10.80
2023-01-28T06:12:49.000Z,12.73
2023-01-28T06:15:17.490Z,11.97
2023-01-28T06:17:48.531Z,9.67
2023-01-28T06:20:18.104Z,15.20
2023-01-28T06:22:47.708Z,2.07
2023-01-28T06:25:15.996Z,9.43
2023-01-28T06:27:44.173Z,11.20
2023-01-28T06:30:13.104Z,15.97
2023-01-28T06:32:41.596Z,7.10
2023-01-28T06:35:10.044Z,16.57
2023-01-28T06:37:39.782Z,16.50
2023-01-28T06:40:10.472Z,11.37
2023-01-28T06:42:38.674Z,16.43
2023-01-28T06:45:07.268Z,15.30
2023-01-28T06:47:35.481Z,12.87
2023-01-28T06:50:03.717Z,17.00
2023-01-28T06:52:32.015Z,13.37
2023-01-28T06:55:01.614Z,14.67
2023-01-28T06:57:31.245Z,18.37
2023-01-28T06:59:59.618Z,21.67
2023-01-28T07:02:28.045Z,18.47
2023-01-28T07:04:56.446Z,15.70
2023-01-28T07:07:25.760Z,18.80
2023-01-28T07:09:54.451Z,18.40
2023-01-28T07:12:22.719Z,18.53
2023-01-28T07:14:52.651Z,15.20
2023-01-28T07:17:20.981Z,18.17
2023-01-28T07:19:49.240Z,19.90
2023-01-28T07:22:17.437Z,19.63
2023-01-28T07:24:45.639Z,16.20
2023-01-28T07:27:14.651Z,16.70
2023-01-28T07:29:43.567Z,19.60
2023-01-28T07:32:31.367Z,17.70
2023-01-28T07:35:00.310Z,19.40
2023-01-28T07:37:29.400Z,20.33
2023-01-28T07:39:59.245Z,16.80
2023-01-28T07:42:27.490Z,16.50
2023-01-28T07:44:55.917Z,25.87
2023-01-28T07:47:24.221Z,18.83
2023-01-28T07:49:53.914Z,18.23
2023-01-28T07:52:22.157Z,13.37
2023-01-28T07:54:50.395Z,12.40
2023-01-28T07:57:23.268Z,7.63
2023-01-28T07:59:51.871Z,11.97
2023-01-28T08:02:20.607Z,18.40
2023-01-28T08:04:48.948Z,16.80
2023-01-28T08:07:18.509Z,17.07
2023-01-28T08:09:46.701Z,15.63
2023-01-28T08:12:15.018Z,11.37
2023-01-28T08:14:43.211Z,4.70
2023-01-28T08:17:11.885Z,18.20
2023-01-28T08:19:40.105Z,15.40
2023-01-28T08:22:08.292Z,18.43
2023-01-28T08:24:37.957Z,12.93
2023-01-28T08:27:06.221Z,19.03
2023-01-28T08:29:34.495Z,14.70
2023-01-28T08:32:02.717Z,17.17
2023-01-28T08:34:30.944Z,9.37
2023-01-28T08:37:01.526Z,16.30
2023-01-28T08:39:29.983Z,16.20
2023-01-28T08:42:00.796Z,7.83
2023-01-28T08:44:32.150Z,17.83
2023-01-28T08:47:00.349Z,17.00
2023-01-28T08:49:28.585Z,17.60
2023-01-28T08:51:56.794Z,12.47
2023-01-28T08:54:25.009Z,14.70
2023-01-28T08:56:53.193Z,16.17
2023-01-28T08:59:22.783Z,11.67
2023-01-28T09:01:51.372Z,14.73
2023-01-28T09:04:19.645Z,11.67
2023-01-28T09:06:47.932Z,10.43
2023-01-28T09:09:16.163Z,10.23
2023-01-28T09:11:44.454Z,13.80
2023-01-28T09:14:12.849Z,15.33
2023-01-28T09:16:42.446Z,5.63
2023-01-28T09:19:10.672Z,15.53
2023-01-28T09:21:40.558Z,9.77
2023-01-28T09:24:12.619Z,17.40
2023-01-28T09:26:40.924Z,6.80
2023-01-28T09:29:09.141Z,13.73
2023-01-28T09:31:37.487Z,8.63
2023-01-28T09:34:08.178Z,11.37
2023-01-28T09:36:36.532Z,15.30
2023-01-28T09:39:05.134Z,13.13
2023-01-28T09:41:38.608Z,11.80
2023-01-28T09:44:20.431Z,18.70
2023-01-28T09:46:48.797Z,6.57
2023-01-28T09:49:22.823Z,10.50
2023-01-28T09:51:53.716Z,9.50
2023-01-28T09:54:25.944Z,15.33
2023-01-28T09:56:58.390Z,14.50
2023-01-28T09:59:26.792Z,18.97
2023-01-28T10:01:58.356Z,18.00
2023-01-28T10:04:33.358Z,11.90
2023-01-28T10:07:07.281Z,18.90
2023-01-28T10:09:41.356Z,14.60
2023-01-28T10:12:18.934Z,10.67
2023-01-28T10:14:51.789Z,12.73
2023-01-28T10:17:24.290Z,7.67
2023-01-28T10:19:55.468Z,16.70
2023-01-28T10:22:26.073Z,12.27
2023-01-28T10:24:57.521Z,20.30
2023-01-28T10:27:26.840Z,8.80
2023-01-28T10:29:55.783Z,5.30
2023-01-28T10:32:25.558Z,4.07
2023-01-28T10:34:55.278Z,15.33
2023-01-28T10:37:23.859Z,17.20
2023-01-28T10:39:54.162Z,20.00
2023-01-28T10:42:28.778Z,9.00
2023-01-28T10:44:59.477Z,13.83
2023-01-28T10:47:31.078Z,16.07
2023-01-28T10:50:01.041Z,20.47
2023-01-28T10:52:29.678Z,10.23
2023-01-28T10:55:01.781Z,13.17
2023-01-28T10:57:30.242Z,9.10
2023-01-28T10:59:58.869Z,14.37
2023-01-28T11:02:32.280Z,18.17
2023-01-28T11:05:06.215Z,13.20
2023-01-28T11:07:34.705Z,7.50
2023-01-28T11:10:03.484Z,17.63
2023-01-28T11:12:32.241Z,9.97
2023-01-28T11:15:02.189Z,12.73
2023-01-28T11:17:31.301Z,14.00
2023-01-28T11:20:01.080Z,19.10
2023-01-28T11:22:34.240Z,8.67
2023-01-28T11:25:03.260Z,7.07
2023-01-28T11:27:32.836Z,17.97
2023-01-28T11:30:04.281Z,19.37
2023-01-28T11:32:33.592Z,8.10
2023-01-28T11:35:02.098Z,19.13
2023-01-28T11:37:31.818Z,6.60
2023-01-28T11:40:03.643Z,4.77
2023-01-28T11:42:32.743Z,12.80
2023-01-28T11:45:00.981Z,11.73
2023-01-28T11:47:43.774Z,11.37
2023-01-28T11:50:20.449Z,13.97
2023-01-28T11:53:06.849Z,12.37
2023-01-28T11:55:52.750Z,17.47
2023-01-28T11:58:24.120Z,15.43
2023-01-28T12:00:58.002Z,20.40
2023-01-28T12:03:41.526Z,11.07
2023-01-28T12:06:16.255Z,8.30
2023-01-28T12:08:47.854Z,17.80
2023-01-28T12:11:43.910Z,16.70
2023-01-28T12:14:16.476Z,23.37
2023-01-28T12:16:48.757Z,11.97
2023-01-28T12:19:47.018Z,19.83
2023-01-28T12:22:24.901Z,19.90
2023-01-28T12:25:01.626Z,22.47
2023-01-28T12:27:41.874Z,19.27
2023-01-28T12:30:15.727Z,8.50
2023-01-28T12:32:54.014Z,5.50
2023-01-28T12:35:32.615Z,23.17
2023-01-28T12:38:03.089Z,15.83
2023-01-28T12:40:56.913Z,17.40
2023-01-28T12:43:34.696Z,11.07
2023-01-28T12:46:12.246Z,18.70
2023-01-28T12:48:42.859Z,18.43
2023-01-28T12:51:13.788Z,15.70
2023-01-28T12:53:44.204Z,14.13
2023-01-28T12:56:15.654Z,12.27
2023-01-28T12:58:48.998Z,19.97
2023-01-28T13:01:20.648Z,10.93
2023-01-28T13:03:51.594Z,12.37
2023-01-28T13:06:23.513Z,14.47
2023-01-28T13:08:52.053Z,21.13
2023-01-28T13:11:21.107Z,21.27
2023-01-28T13:13:51.274Z,16.33
2023-01-28T13:16:28.585Z,12.20
2023-01-28T13:19:08.431Z,21.23
2023-01-28T13:21:48.568Z,21.63
2023-01-28T13:24:22.814Z,18.27
2023-01-28T13:26:51.715Z,20.77
2023-01-28T13:29:31.029Z,22.27
2023-01-28T13:31:59.989Z,20.53
2023-01-28T13:34:32.915Z,19.10
2023-01-28T13:37:02.881Z,19.53
2023-01-28T13:39:32.799Z,24.70
2023-01-28T13:42:10.929Z,23.20
2023-01-28T13:44:40.778Z,22.77
2023-01-28T13:47:17.069Z,18.87
2023-01-28T13:49:46.864Z,20.67
2023-01-28T13:52:17.111Z,21.57
2023-01-28T13:54:46.931Z,19.83
2023-01-28T13:57:30.074Z,21.70
2023-01-28T14:00:04.657Z,20.57
2023-01-28T14:02:45.881Z,20.63
2023-01-28T14:05:36.330Z,19.30
2023-01-28T14:08:28.359Z,20.50
2023-01-28T14:11:01.237Z,22.37
2023-01-28T14:13:34.726Z,20.77
2023-01-28T14:16:17.585Z,14.10
2023-01-28T14:18:46.825Z,7.40
2023-01-28T14:21:15.923Z,23.80
2023-01-28T14:23:46.703Z,18.77
2023-01-28T14:26:37.176Z,21.70
2023-01-28T14:29:11.181Z,20.40
2023-01-28T14:31:43.382Z,20.73
2023-01-28T14:34:16.949Z,16.40
2023-01-28T14:36:52.704Z,20.37
2023-01-28T14:39:22.210Z,22.23
2023-01-28T14:42:05.226Z,21.50
2023-01-28T14:44:34.266Z,23.70
2023-01-28T14:47:12.365Z,12.70
2023-01-28T14:49:45.113Z,19.87
2023-01-28T14:52:31.532Z,21.80
2023-01-28T14:55:04.235Z,19.63
2023-01-28T14:57:39.515Z,11.53
2023-01-28T15:00:18.206Z,20.70
2023-01-28T15:02:48.050Z,20.17
2023-01-28T15:05:18.104Z,23.10
2023-01-28T15:07:46.781Z,19.93
2023-01-28T15:10:19.119Z,22.80
2023-01-28T15:12:49.093Z,18.30
2023-01-28T15:15:21.872Z,20.27
2023-01-28T15:17:51.894Z,21.23
2023-01-28T15:20:21.017Z,22.83
2023-01-28T15:22:49.603Z,20.57
2023-01-28T15:25:31.719Z,23.67
2023-01-28T15:28:01.424Z,20.73
2023-01-28T15:30:30.769Z,20.83
2023-01-28T15:33:02.717Z,21.67
2023-01-28T15:35:35.349Z,20.13
2023-01-28T15:38:05.254Z,21.30
2023-01-28T15:40:43.784Z,22.40
2023-01-28T15:43:19.425Z,22.97
2023-01-28T15:45:49.031Z,22.73
2023-01-28T15:48:21.339Z,22.87
2023-01-28T15:50:50.980Z,19.73
2023-01-28T15:53:19.472Z,21.10
2023-01-28T15:55:48.808Z,20.93
2023-01-28T15:58:21.411Z,18.30
2023-01-28T16:00:50.642Z,20.80
2023-01-28T16:03:22.457Z,20.07
2023-01-28T16:05:58.448Z,21.50
2023-01-28T16:08:29.344Z,21.57
2023-01-28T16:10:58.562Z,22.17
2023-01-28T16:13:27.554Z,24.37
2023-01-28T16:15:56.876Z,21.13
2023-01-28T16:18:31.590Z,19.03
2023-01-28T16:21:01.314Z,19.00
2023-01-28T16:23:29.839Z,19.30
2023-01-28T16:26:01.541Z,17.90
2023-01-28T16:28:30.781Z,19.10
2023-01-28T16:30:59.531Z,19.87
2023-01-28T16:33:29.364Z,20.60
2023-01-28T16:36:07.752Z,19.90
2023-01-28T16:38:37.106Z,20.40
2023-01-28T16:41:05.612Z,18.57
2023-01-28T16:46:02.978Z,20.60
2023-01-28T16:48:32.638Z,19.83
2023-01-28T16:51:01.030Z,20.47
2023-01-28T16:53:33.526Z,17.90
2023-01-28T16:56:02.468Z,17.17
2023-01-28T16:58:30.915Z,20.73
2023-01-28T17:00:59.437Z,22.00
2023-01-28T17:03:27.733Z,19.80
2023-01-28T17:05:57.336Z,20.83
2023-01-28T17:08:25.807Z,21.50
2023-01-28T17:10:54.770Z,25.03
2023-01-28T17:13:23.053Z,19.90
2023-01-28T17:15:51.310Z,17.03
2023-01-28T17:18:19.837Z,18.10
2023-01-28T17:20:48.077Z,14.40
2023-01-28T17:23:22.800Z,21.47
2023-01-28T17:25:51.001Z,16.97
2023-01-28T17:28:19.243Z,18.20
2023-01-28T17:30:47.507Z,21.87
2023-01-28T17:33:15.804Z,22.27
2023-01-28T17:35:47.693Z,18.10
2023-01-28T17:38:15.906Z,21.90
2023-01-28T17:40:45.566Z,23.63
2023-01-28T17:43:13.853Z,22.33
2023-01-28T17:45:42.126Z,24.20
2023-01-28T17:48:10.375Z,20.37
2023-01-28T17:50:40.082Z,20.93
2023-01-28T17:53:08.811Z,24.23
2023-01-28T17:55:37.763Z,24.80
2023-01-28T17:58:07.576Z,21.43
2023-01-28T18:00:35.825Z,21.90
2023-01-28T18:03:04.028Z,23.07
2023-01-28T18:05:32.307Z,23.90
2023-01-28T18:08:00.529Z,22.17
2023-01-28T18:10:28.980Z,24.30
2023-01-28T18:12:58.222Z,20.03
2023-01-28T18:15:28.938Z,25.00
2023-01-28T18:17:57.185Z,20.60
2023-01-28T18:20:25.454Z,19.10
2023-01-28T18:22:53.708Z,19.90
2023-01-28T18:25:21.924Z,21.40
2023-01-28T18:27:52.133Z,19.97
2023-01-28T18:30:20.601Z,20.30
2023-01-28T18:32:50.278Z,19.73
2023-01-28T18:35:18.921Z,22.13
2023-01-28T18:37:47.370Z,21.30
2023-01-28T18:40:15.657Z,21.50
2023-01-28T18:42:43.890Z,19.47
2023-01-28T18:45:12.652Z,20.63
2023-01-28T18:47:41.417Z,20.50
2023-01-28T18:50:11.788Z,20.60
2023-01-28T18:52:39.987Z,21.30
2023-01-28T18:55:10.179Z,24.50
2023-01-28T18:57:42.695Z,21.83
2023-01-28T19:00:11.712Z,22.40
2023-01-28T19:02:40.123Z,23.00
2023-01-28T19:05:08.665Z,18.60
2023-01-28T19:07:38.544Z,19.67
2023-01-28T19:10:07.283Z,19.57
2023-01-28T19:12:48.921Z,20.10
2023-01-28T19:15:17.562Z,20.77
2023-01-28T19:17:49.053Z,18.97
2023-01-28T19:20:17.401Z,21.53
2023-01-28T19:22:47.156Z,24.20
2023-01-28T19:25:16.334Z,21.67
2023-01-28T19:27:44.868Z,21.30
2023-01-28T19:30:13.392Z,18.87
2023-01-28T19:32:42.368Z,20.83
2023-01-28T19:35:10.657Z,20.70
2023-01-28T19:37:39.191Z,20.00
2023-01-28T19:40:38.111Z,21.43
2023-01-28T19:43:08.198Z,20.00
2023-01-28T19:45:36.425Z,19.07
2023-01-28T19:48:19.909Z,19.73
2023-01-28T19:50:48.147Z,19.50
2023-01-28T19:53:16.827Z,20.27
2023-01-28T19:55:45.162Z,19.63
2023-01-28T19:58:14.969Z,18.53
2023-01-28T20:00:43.423Z,18.93
2023-01-28T20:03:12.902Z,19.97
2023-01-28T20:05:41.345Z,20.50
2023-01-28T20:08:09.546Z,20.60
2023-01-28T20:10:38.056Z,22.43
2023-01-28T20:13:07.618Z,21.10
2023-01-28T20:15:40.965Z,24.23
2023-01-28T20:18:09.327Z,23.80
2023-01-28T20:20:37.544Z,21.30
2023-01-28T20:23:06.479Z,22.10
2023-01-28T20:25:34.748Z,26.07
2023-01-28T20:28:03.163Z,23.13
2023-01-28T20:30:31.551Z,19.50
2023-01-28T20:33:01.191Z,24.43
2023-01-28T20:35:29.463Z,23.63
2023-01-28T20:37:57.793Z,27.80
2023-01-28T20:40:26.320Z,19.53
2023-01-28T20:42:54.589Z,26.23
2023-01-28T20:45:22.850Z,25.73
2023-01-28T20:47:52.406Z,27.07
2023-01-28T20:50:22.222Z,26.70
2023-01-28T20:52:50.509Z,25.90
2023-01-28T20:55:18.938Z,27.13
2023-01-28T20:57:47.482Z,29.47
2023-01-28T21:00:16.201Z,28.50
2023-01-28T21:02:45.998Z,28.67
2023-01-28T21:05:14.509Z,30.57
2023-01-28T21:07:46.068Z,27.70
2023-01-28T21:10:14.379Z,27.93
2023-01-28T21:12:42.671Z,25.50
2023-01-28T21:15:11.374Z,26.67
2023-01-28T21:17:39.928Z,28.87
2023-01-28T21:20:08.932Z,32.67
2023-01-28T21:22:37.238Z,31.13
2023-01-28T21:25:07.510Z,27.47
2023-01-28T21:27:35.829Z,29.80
2023-01-28T21:30:05.371Z,31.90
2023-01-28T21:32:33.586Z,27.33
2023-01-28T21:35:01.843Z,28.20
2023-01-28T21:37:30.111Z,32.03
2023-01-28T21:39:58.418Z,29.17
2023-01-28T21:42:29.156Z,29.77
2023-01-28T21:45:02.659Z,27.50
2023-01-28T21:47:31.406Z,23.77
2023-01-28T21:50:00.709Z,25.73
2023-01-28T21:52:29.234Z,28.30
2023-01-28T21:54:58.947Z,29.73
2023-01-28T21:57:28.506Z,25.70
2023-01-28T21:59:56.839Z,27.77
2023-01-28T22:02:25.164Z,26.17
2023-01-28T22:04:53.551Z,29.83
2023-01-28T22:07:21.936Z,26.20
2023-01-28T22:09:52.298Z,30.53
2023-01-28T22:12:21.623Z,30.00
2023-01-28T22:14:51.297Z,27.93
2023-01-28T22:17:19.627Z,29.43
2023-01-28T22:19:48.790Z,31.10
2023-01-28T22:22:17.256Z,27.57
2023-01-28T22:24:45.481Z,27.47
2023-01-28T22:27:13.977Z,23.03
2023-01-28T22:29:42.290Z,23.60
2023-01-28T22:32:12.084Z,23.33
2023-01-28T22:34:40.385Z,23.30
2023-01-28T22:37:10.386Z,23.67
2023-01-28T22:39:38.677Z,23.97
2023-01-28T22:42:07.299Z,20.43
2023-01-28T22:44:35.647Z,25.23
2023-01-28T22:47:03.849Z,20.93
2023-01-28T22:49:33.377Z,21.60
2023-01-28T22:52:01.573Z,20.73
2023-01-28T22:54:29.877Z,24.77
2023-01-28T22:56:58.127Z,21.97
2023-01-28T22:59:26.324Z,21.53
2023-01-28T23:01:54.600Z,23.50
2023-01-28T23:04:22.837Z,25.73
2023-01-28T23:06:52.508Z,23.37
2023-01-28T23:09:21.817Z,24.97
2023-01-28T23:11:50.105Z,26.47
2023-01-28T23:14:35.971Z,30.37
2023-01-28T23:17:22.001Z,27.53
2023-01-28T23:20:07.693Z,24.67
2023-01-28T23:22:55.056Z,23.40
2023-01-28T23:25:24.511Z,24.27
2023-01-28T23:27:52.665Z,24.63
2023-01-28T23:30:25.113Z,24.90
2023-01-28T23:32:54.800Z,23.70
2023-01-28T23:35:25.992Z,24.23
2023-01-28T23:37:56.593Z,23.27
2023-01-28T23:40:26.982Z,23.27
2023-01-28T23:42:56.048Z,25.37
2023-01-28T23:45:25.174Z,23.03
2023-01-28T23:47:53.398Z,22.13
2023-01-28T23:50:22.721Z,22.80
2023-01-28T23:52:50.975Z,24.90
2023-01-28T23:55:21.610Z,24.00
2023-01-28T23:57:49.775Z,25.60
